createdAt,value
2019-02-23T00:00:04.723Z,42.97
2019-02-23T00:02:35.248Z,40.93
2019-02-23T00:05:05.669Z,41.60
2019-02-23T00:07:36.242Z,40.57
2019-02-23T00:10:06.755Z,38.23
2019-02-23T00:12:37.255Z,36.77
2019-02-23T00:15:08.297Z,38.53
2019-02-23T00:17:38.723Z,36.73
2019-02-23T00:20:09.153Z,40.83
2019-02-23T00:22:40.602Z,41.67
2019-02-23T00:25:11.130Z,43.80
2019-02-23T00:27:41.563Z,38.13
2019-02-23T00:30:11.985Z,38.10
2019-02-23T00:32:42.411Z,38.87
2019-02-23T00:35:12.839Z,38.20
2019-02-23T00:37:43.265Z,43.37
2019-02-23T00:40:13.739Z,39.20
2019-02-23T00:42:44.223Z,44.60
2019-02-23T00:45:14.649Z,39.30
2019-02-23T00:47:45.075Z,44.83
2019-02-23T00:50:15.505Z,40.77
2019-02-23T00:52:46.036Z,42.60
2019-02-23T00:55:16.460Z,47.00
2019-02-23T00:57:46.885Z,45.13
2019-02-23T01:00:17.321Z,46.90
2019-02-23T01:02:48.969Z,47.57
2019-02-23T01:05:19.403Z,47.57
2019-02-23T01:07:49.829Z,38.70
2019-02-23T01:10:20.508Z,39.73
2019-02-23T01:12:50.982Z,42.57
2019-02-23T01:15:21.412Z,45.80
2019-02-23T01:17:51.840Z,45.63
2019-02-23T01:20:22.266Z,40.70
2019-02-23T01:22:52.692Z,44.10
2019-02-23T01:25:23.119Z,47.57
2019-02-23T01:27:53.545Z,42.60
2019-02-23T01:30:23.974Z,45.80
2019-02-23T01:32:55.426Z,43.33
2019-02-23T01:35:25.851Z,45.30
2019-02-23T01:37:56.280Z,44.40
2019-02-23T01:40:26.807Z,45.80
2019-02-23T01:42:57.279Z,44.30
2019-02-23T01:45:27.765Z,43.17
2019-02-23T01:47:58.193Z,48.83
2019-02-23T01:50:28.620Z,46.00
2019-02-23T01:52:59.299Z,47.40
2019-02-23T01:55:29.880Z,50.63
2019-02-23T01:58:00.308Z,41.20
2019-02-23T02:00:31.251Z,44.97
2019-02-23T02:03:01.673Z,38.93
2019-02-23T02:05:32.101Z,47.83
2019-02-23T02:08:02.532Z,42.27
2019-02-23T02:10:33.331Z,46.33
2019-02-23T02:13:04.024Z,41.20
2019-02-23T02:15:34.638Z,48.33
2019-02-23T02:18:05.059Z,46.03
2019-02-23T02:20:35.484Z,42.00
2019-02-23T02:23:06.017Z,42.80
2019-02-23T02:25:36.643Z,42.23
2019-02-23T02:28:07.071Z,43.00
2019-02-23T02:30:37.704Z,41.80
2019-02-23T02:33:09.157Z,36.93
2019-02-23T02:35:39.583Z,44.97
2019-02-23T02:38:10.007Z,38.10
2019-02-23T02:40:40.434Z,46.63
2019-02-23T02:43:11.886Z,35.73
2019-02-23T02:45:42.355Z,38.30
2019-02-23T02:48:12.841Z,47.43
2019-02-23T02:50:43.279Z,43.53
2019-02-23T02:53:14.019Z,47.33
2019-02-23T02:55:44.430Z,42.83
2019-02-23T02:58:14.856Z,42.90
2019-02-23T03:00:45.491Z,46.43
2019-02-23T03:03:16.120Z,41.37
2019-02-23T03:05:46.758Z,43.87
2019-02-23T03:08:17.390Z,38.73
2019-02-23T03:10:47.814Z,43.33
2019-02-23T03:13:18.236Z,41.53
2019-02-23T03:15:48.736Z,36.63
2019-02-23T03:18:19.195Z,40.17
2019-02-23T03:20:49.620Z,40.80
2019-02-23T03:23:20.066Z,40.03
2019-02-23T03:25:50.479Z,38.30
2019-02-23T03:28:20.900Z,39.20
2019-02-23T03:30:51.333Z,39.57
2019-02-23T03:33:21.946Z,36.87
2019-02-23T03:35:52.388Z,43.77
2019-02-23T03:38:22.816Z,39.37
2019-02-23T03:40:53.241Z,41.30
2019-02-23T03:43:23.670Z,38.93
2019-02-23T03:45:54.095Z,38.50
2019-02-23T03:48:24.571Z,39.47
2019-02-23T03:50:55.065Z,43.23
2019-02-23T03:53:25.791Z,40.33
2019-02-23T03:55:56.488Z,46.97
2019-02-23T03:58:27.019Z,40.30
2019-02-23T04:00:57.476Z,42.57
2019-02-23T04:03:27.985Z,35.87
2019-02-23T04:05:58.438Z,41.30
2019-02-23T04:08:29.066Z,48.83
2019-02-23T04:10:59.702Z,47.30
2019-02-23T04:13:30.124Z,45.83
2019-02-23T04:16:00.551Z,41.63
2019-02-23T04:18:30.978Z,45.77
2019-02-23T04:21:02.225Z,41.87
2019-02-23T04:23:32.958Z,42.43
2019-02-23T04:26:03.384Z,43.40
2019-02-23T04:28:33.813Z,43.83
2019-02-23T04:31:04.243Z,46.47
2019-02-23T04:33:34.768Z,45.20
2019-02-23T04:36:05.198Z,42.60
2019-02-23T04:38:35.622Z,38.27
2019-02-23T04:41:06.050Z,45.33
2019-02-23T04:43:36.476Z,39.67
2019-02-23T04:46:06.903Z,40.47
2019-02-23T04:48:37.330Z,44.87
2019-02-23T04:51:14.400Z,47.07
2019-02-23T04:53:39.869Z,47.57
2019-02-23T04:56:10.502Z,45.53
2019-02-23T04:58:40.984Z,46.17
2019-02-23T05:01:11.410Z,47.33
2019-02-23T05:03:41.837Z,55.00
2019-02-23T05:06:12.264Z,43.73
2019-02-23T05:08:42.898Z,53.10
2019-02-23T05:11:13.631Z,46.27
2019-02-23T05:13:44.059Z,52.67
2019-02-23T05:16:14.485Z,57.53
2019-02-23T05:18:46.246Z,52.17
2019-02-23T05:21:26.040Z,53.60
2019-02-23T05:23:49.807Z,48.37
2019-02-23T05:26:20.288Z,54.77
2019-02-23T05:28:50.922Z,63.27
2019-02-23T05:31:22.177Z,55.00
2019-02-23T05:33:52.901Z,50.40
2019-02-23T05:36:23.328Z,56.67
2019-02-23T05:38:53.756Z,54.50
2019-02-23T05:41:25.548Z,62.23
2019-02-23T05:43:57.579Z,55.70
2019-02-23T05:46:28.010Z,55.33
2019-02-23T05:48:58.431Z,60.83
2019-02-23T05:51:38.348Z,62.53
2019-02-23T05:54:02.565Z,68.73
2019-02-23T05:56:33.092Z,57.23
2019-02-23T05:59:03.523Z,71.70
2019-02-23T06:01:33.947Z,72.83
2019-02-23T06:04:05.397Z,65.43
2019-02-23T06:06:35.826Z,71.60
2019-02-23T06:09:06.612Z,69.27
2019-02-23T06:11:37.087Z,63.10
2019-02-23T06:14:07.516Z,68.57
2019-02-23T06:16:37.947Z,67.77
2019-02-23T06:19:08.369Z,62.07
2019-02-23T06:21:52.316Z,64.83
2019-02-23T06:24:11.886Z,74.33
2019-02-23T06:26:42.357Z,70.13
2019-02-23T06:29:12.846Z,61.83
2019-02-23T06:31:43.273Z,63.93
2019-02-23T06:34:16.503Z,74.67
2019-02-23T06:36:45.863Z,65.80
2019-02-23T06:39:16.306Z,67.93
2019-02-23T06:41:46.717Z,69.67
2019-02-23T06:44:17.348Z,62.30
2019-02-23T06:46:47.981Z,60.33
2019-02-23T06:49:18.409Z,68.87
2019-02-23T06:51:48.849Z,75.87
2019-02-23T06:54:19.307Z,71.97
2019-02-23T06:56:49.953Z,73.50
2019-02-23T06:59:20.526Z,68.30
2019-02-23T07:01:50.951Z,71.37
2019-02-23T07:04:21.383Z,59.47
2019-02-23T07:06:51.806Z,75.83
2019-02-23T07:09:22.234Z,77.53
2019-02-23T07:11:52.663Z,74.80
2019-02-23T07:14:23.292Z,64.93
2019-02-23T07:16:53.924Z,74.90
2019-02-23T07:19:24.555Z,70.93
2019-02-23T07:21:54.982Z,77.50
2019-02-23T07:24:26.433Z,87.00
2019-02-23T07:26:56.860Z,83.03
2019-02-23T07:29:27.338Z,79.90
2019-02-23T07:31:57.817Z,72.33
2019-02-23T07:34:28.248Z,69.87
2019-02-23T07:36:58.879Z,60.20
2019-02-23T07:39:29.507Z,57.47
2019-02-23T07:42:00.138Z,52.60
2019-02-23T07:44:30.771Z,48.20
2019-02-23T07:47:01.402Z,50.83
2019-02-23T07:49:32.034Z,48.80
2019-02-23T07:52:02.666Z,56.10
2019-02-23T07:54:33.299Z,49.33
2019-02-23T07:57:03.875Z,46.80
2019-02-23T07:59:34.413Z,44.53
2019-02-23T08:02:04.885Z,48.50
2019-02-23T08:04:36.339Z,42.53
2019-02-23T08:07:06.771Z,47.10
2019-02-23T08:09:37.191Z,44.80
2019-02-23T08:12:07.620Z,45.83
2019-02-23T08:14:39.069Z,50.47
2019-02-23T08:17:09.495Z,44.10
2019-02-23T08:19:39.924Z,46.90
2019-02-23T08:22:10.352Z,47.97
2019-02-23T08:24:40.783Z,43.43
2019-02-23T08:27:11.203Z,46.73
2019-02-23T08:29:41.631Z,47.23
2019-02-23T08:32:12.109Z,44.25
2019-02-23T08:34:42.586Z,43.47
2019-02-23T08:37:13.024Z,46.90
2019-02-23T08:39:43.442Z,45.83
2019-02-23T08:42:13.873Z,43.00
2019-02-23T08:44:44.316Z,39.70
2019-02-23T08:47:14.727Z,40.53
2019-02-23T08:49:45.176Z,37.35
2019-02-23T08:52:17.063Z,40.88
2019-02-23T08:54:47.610Z,37.40
2019-02-23T08:57:18.291Z,43.13
2019-02-23T08:59:48.704Z,40.17
2019-02-23T09:02:19.224Z,41.28
2019-02-23T09:04:49.660Z,38.10
2019-02-23T09:07:20.288Z,42.70
2019-02-23T09:09:50.719Z,48.13
2019-02-23T09:12:21.346Z,42.85
2019-02-23T09:14:51.774Z,39.78
2019-02-23T09:17:22.205Z,37.95
2019-02-23T09:19:52.628Z,42.78
2019-02-23T09:22:23.058Z,37.65
2019-02-23T09:24:53.488Z,37.25
2019-02-23T09:27:23.954Z,40.20
2019-02-23T09:29:54.441Z,44.15
2019-02-23T09:32:25.890Z,39.90
2019-02-23T09:34:56.374Z,38.17
2019-02-23T09:37:27.011Z,34.88
2019-02-23T09:39:57.538Z,36.20
2019-02-23T09:42:28.162Z,38.53
2019-02-23T09:44:58.659Z,41.68
2019-02-23T09:47:31.878Z,38.00
2019-02-23T09:50:02.388Z,40.05
2019-02-23T09:52:32.908Z,38.58
2019-02-23T09:55:03.395Z,37.33
2019-02-23T09:57:34.090Z,35.43
2019-02-23T10:00:04.839Z,34.80
2019-02-23T10:02:35.350Z,30.48
2019-02-23T10:05:06.173Z,31.70
2019-02-23T10:07:36.599Z,29.60
2019-02-23T10:10:08.027Z,30.65
2019-02-23T10:12:38.495Z,38.73
2019-02-23T10:15:09.409Z,36.75
2019-02-23T10:17:40.049Z,35.28
2019-02-23T10:20:10.972Z,34.95
2019-02-23T10:22:41.800Z,35.43
2019-02-23T10:25:12.263Z,37.50
2019-02-23T10:27:42.791Z,36.03
2019-02-23T10:30:13.525Z,38.33
2019-02-23T10:32:44.236Z,37.23
2019-02-23T10:35:15.295Z,36.77
2019-02-23T10:37:46.035Z,34.40
2019-02-23T10:40:17.850Z,37.10
2019-02-23T10:42:48.312Z,35.43
2019-02-23T10:45:18.928Z,33.30
2019-02-23T10:47:50.275Z,33.13
2019-02-23T10:50:20.926Z,36.00
2019-02-23T10:52:53.506Z,34.65
2019-02-23T10:55:24.051Z,38.55
2019-02-23T10:57:54.591Z,34.08
2019-02-23T11:00:26.114Z,32.35
2019-02-23T11:02:56.642Z,32.33
2019-02-23T11:05:27.262Z,24.57
2019-02-23T11:07:57.943Z,26.77
2019-02-23T11:10:28.431Z,27.37
2019-02-23T11:12:59.151Z,22.77
2019-02-23T11:15:29.827Z,21.87
2019-02-23T11:18:02.897Z,25.10
2019-02-23T11:20:33.535Z,31.02
2019-02-23T11:23:04.067Z,28.55
2019-02-23T11:25:34.715Z,32.42
2019-02-23T11:28:05.347Z,27.02
2019-02-23T11:30:35.823Z,31.50
2019-02-23T11:33:06.830Z,34.98
2019-02-23T11:35:37.291Z,29.50
2019-02-23T11:38:13.452Z,30.80
2019-02-23T11:40:43.923Z,28.32
2019-02-23T11:43:14.415Z,32.30
2019-02-23T11:45:47.851Z,28.38
2019-02-23T11:48:18.435Z,29.12
2019-02-23T11:50:49.199Z,31.77
2019-02-23T11:53:19.702Z,34.20
2019-02-23T11:55:50.015Z,27.15
2019-02-23T11:58:20.500Z,27.60
2019-02-23T12:00:51.231Z,27.95
2019-02-23T12:03:21.726Z,28.25
2019-02-23T12:05:52.159Z,32.28
2019-02-23T12:08:28.611Z,29.27
2019-02-23T12:10:59.095Z,24.70
2019-02-23T12:13:29.572Z,25.60
2019-02-23T12:15:59.996Z,27.25
2019-02-23T12:18:30.420Z,29.15
2019-02-23T12:21:00.848Z,27.40
2019-02-23T12:23:32.309Z,25.75
2019-02-23T12:26:02.727Z,25.60
2019-02-23T12:28:33.152Z,24.92
2019-02-23T12:31:04.914Z,25.35
2019-02-23T12:33:35.444Z,23.25
2019-02-23T12:36:05.866Z,21.87
2019-02-23T12:38:36.297Z,20.68
2019-02-23T12:41:06.729Z,21.05
2019-02-23T12:43:37.455Z,23.87
2019-02-23T12:46:08.087Z,21.40
2019-02-23T12:48:39.852Z,20.17
2019-02-23T12:51:10.278Z,21.15
2019-02-23T12:53:40.806Z,21.00
2019-02-23T12:56:11.228Z,14.55
2019-02-23T12:58:41.748Z,17.73
2019-02-23T13:01:12.233Z,15.05
2019-02-23T13:03:42.919Z,12.82
2019-02-23T13:06:13.346Z,16.48
2019-02-23T13:09:20.919Z,14.07
2019-02-23T13:12:01.610Z,19.25
2019-02-23T13:15:05.625Z,14.78
2019-02-23T13:18:05.850Z,12.40
2019-02-23T13:21:31.986Z,15.00
2019-02-23T13:24:43.447Z,13.80
2019-02-23T13:27:26.471Z,13.65
2019-02-23T13:30:43.892Z,14.28
2019-02-23T13:33:41.157Z,13.72
2019-02-23T13:36:41.075Z,10.35
2019-02-23T13:39:40.884Z,13.98
2019-02-23T13:42:54.750Z,12.50
2019-02-23T13:46:24.788Z,14.00
2019-02-23T13:49:26.752Z,12.78
2019-02-23T13:52:53.293Z,12.70
2019-02-23T13:56:05.852Z,12.73
2019-02-23T13:59:01.015Z,15.05
2019-02-23T14:01:54.487Z,14.18
2019-02-23T14:05:02.356Z,13.45
2019-02-23T14:08:09.383Z,12.13
2019-02-23T14:11:29.264Z,14.90
2019-02-23T14:14:45.527Z,12.40
2019-02-23T14:17:56.743Z,12.75
2019-02-23T14:20:56.560Z,16.02
2019-02-23T14:24:22.794Z,12.23
2019-02-23T14:27:01.795Z,22.20
2019-02-23T14:30:17.616Z,26.15
2019-02-23T14:33:18.937Z,29.42
2019-02-23T14:36:02.573Z,30.70
2019-02-23T14:39:23.184Z,33.63
2019-02-23T14:42:21.869Z,34.88
2019-02-23T14:45:30.827Z,31.73
2019-02-23T14:48:33.743Z,35.35
2019-02-23T14:51:44.286Z,31.75
2019-02-23T14:55:01.237Z,35.20
2019-02-23T14:58:20.676Z,33.95
2019-02-23T15:01:18.038Z,34.73
2019-02-23T15:04:41.097Z,33.65
2019-02-23T15:07:55.657Z,32.35
2019-02-23T15:11:05.508Z,33.85
2019-02-23T15:14:24.986Z,33.98
2019-02-23T15:17:34.431Z,35.75
2019-02-23T15:20:59.022Z,32.35
2019-02-23T15:23:39.028Z,31.85
2019-02-23T15:26:29.026Z,34.18
2019-02-23T15:29:42.982Z,33.75
2019-02-23T15:33:15.601Z,37.48
2019-02-23T15:36:13.566Z,42.98
2019-02-23T15:39:12.014Z,38.48
2019-02-23T15:42:21.322Z,35.30
2019-02-23T15:45:18.444Z,34.15
2019-02-23T15:48:27.066Z,34.35
2019-02-23T15:50:57.617Z,35.28
2019-02-23T15:53:29.152Z,31.33
2019-02-23T15:55:59.859Z,35.15
2019-02-23T15:58:30.382Z,34.15
2019-02-23T16:01:00.883Z,37.42
2019-02-23T16:03:31.540Z,35.08
2019-02-23T16:06:02.004Z,33.53
2019-02-23T16:08:32.426Z,36.35
2019-02-23T16:11:02.851Z,34.48
2019-02-23T16:13:34.353Z,32.70
2019-02-23T16:16:05.049Z,33.28
2019-02-23T16:18:35.467Z,35.38
2019-02-23T16:21:06.104Z,37.08
2019-02-23T16:23:38.107Z,37.70
2019-02-23T16:26:08.673Z,35.95
2019-02-23T16:28:39.121Z,37.90
2019-02-23T16:31:09.544Z,38.67
2019-02-23T16:33:41.004Z,37.48
2019-02-23T16:36:11.422Z,37.93
2019-02-23T16:38:41.856Z,37.25
2019-02-23T16:41:12.267Z,47.83
2019-02-23T16:43:42.705Z,41.58
2019-02-23T16:46:13.130Z,47.95
2019-02-23T16:48:43.561Z,43.13
2019-02-23T16:51:13.984Z,46.63
2019-02-23T16:53:44.412Z,48.73
2019-02-23T16:56:14.887Z,44.38
2019-02-23T16:58:45.391Z,44.40
2019-02-23T17:01:15.851Z,45.70
2019-02-23T17:03:47.499Z,42.07
2019-02-23T17:06:17.978Z,44.60
2019-02-23T17:08:48.410Z,39.90
2019-02-23T17:11:18.834Z,40.63
2019-02-23T17:13:49.260Z,38.43
2019-02-23T17:16:19.687Z,42.77
2019-02-23T17:18:50.117Z,46.23
2019-02-23T17:21:20.542Z,48.80
2019-02-23T17:23:51.995Z,48.80
2019-02-23T17:26:22.526Z,50.03
2019-02-23T17:28:52.951Z,50.00
2019-02-23T17:31:23.376Z,48.53
2019-02-23T17:33:53.812Z,49.93
2019-02-23T17:36:24.456Z,55.33
2019-02-23T17:38:55.171Z,50.93
2019-02-23T17:41:25.596Z,50.07
2019-02-23T17:43:56.023Z,49.03
2019-02-23T17:46:26.760Z,45.70
2019-02-23T17:48:57.388Z,52.77
2019-02-23T17:51:27.814Z,53.00
2019-02-23T17:53:59.472Z,49.53
2019-02-23T17:56:30.103Z,52.13
2019-02-23T17:59:00.576Z,47.60
2019-02-23T18:01:31.109Z,49.20
2019-02-23T18:04:03.131Z,52.23
2019-02-23T18:06:35.031Z,53.30
2019-02-23T18:09:06.340Z,52.70
2019-02-23T18:11:36.760Z,56.60
2019-02-23T18:14:08.210Z,61.43
2019-02-23T18:16:38.638Z,59.30
2019-02-23T18:19:09.065Z,57.67
2019-02-23T18:21:39.495Z,51.17
2019-02-23T18:24:10.944Z,55.07
2019-02-23T18:26:41.384Z,63.13
2019-02-23T18:29:11.958Z,63.30
2019-02-23T18:31:42.428Z,67.17
2019-02-23T18:34:13.888Z,60.17
2019-02-23T18:36:44.408Z,65.03
2019-02-23T18:39:14.839Z,67.57
2019-02-23T18:41:45.265Z,64.67
2019-02-23T18:44:16.719Z,61.63
2019-02-23T18:46:47.140Z,57.80
2019-02-23T18:49:17.571Z,67.40
2019-02-23T18:51:48.006Z,65.30
2019-02-23T18:54:18.527Z,58.77
2019-02-23T18:56:49.156Z,67.37
2019-02-23T18:59:19.585Z,60.03
2019-02-23T19:01:50.055Z,63.80
2019-02-23T19:04:20.587Z,60.97
2019-02-23T19:06:51.067Z,69.07
2019-02-23T19:09:21.496Z,67.03
2019-02-23T19:11:51.921Z,63.50
2019-02-23T19:14:22.351Z,76.20
2019-02-23T19:16:52.779Z,68.90
2019-02-23T19:19:23.203Z,81.87
2019-02-23T19:21:53.836Z,65.17
2019-02-23T19:24:24.263Z,74.20
2019-02-23T19:26:54.997Z,80.23
2019-02-23T19:29:25.438Z,79.37
2019-02-23T19:31:57.748Z,73.63
2019-02-23T19:34:28.017Z,74.50
2019-02-23T19:36:58.444Z,76.30
2019-02-23T19:39:28.872Z,89.53
2019-02-23T19:41:59.302Z,76.00
2019-02-23T19:44:30.751Z,78.03
2019-02-23T19:47:14.127Z,78.33
2019-02-23T19:49:44.608Z,76.77
2019-02-23T19:52:18.954Z,79.23
2019-02-23T19:54:49.559Z,78.27
2019-02-23T19:57:19.985Z,79.80
2019-02-23T19:59:50.415Z,100.50
2019-02-23T20:02:21.976Z,90.43
2019-02-23T20:04:52.495Z,100.00
2019-02-23T20:07:23.028Z,94.17
2019-02-23T20:09:53.455Z,86.27
2019-02-23T20:12:24.903Z,81.63
2019-02-23T20:14:55.329Z,85.50
2019-02-23T20:17:25.757Z,83.07
2019-02-23T20:19:56.187Z,80.67
2019-02-23T20:22:27.638Z,75.20
2019-02-23T20:24:58.062Z,99.30
2019-02-23T20:27:28.488Z,97.93
2019-02-23T20:29:58.915Z,93.40
2019-02-23T20:32:30.628Z,87.50
2019-02-23T20:35:01.150Z,86.30
2019-02-23T20:37:31.630Z,88.00
2019-02-23T20:40:02.057Z,96.07
2019-02-23T20:42:32.491Z,95.30
2019-02-23T20:45:02.912Z,102.90
2019-02-23T20:47:33.444Z,92.90
2019-02-23T20:50:04.023Z,93.97
2019-02-23T20:52:34.499Z,102.03
2019-02-23T20:55:05.087Z,103.53
2019-02-23T20:57:35.557Z,93.20
2019-02-23T21:00:06.292Z,98.20
2019-02-23T21:02:36.771Z,98.80
2019-02-23T21:05:08.477Z,87.63
2019-02-23T21:07:39.203Z,101.63
2019-02-23T21:10:10.252Z,95.27
2019-02-23T21:12:41.704Z,102.33
2019-02-23T21:15:12.247Z,96.63
2019-02-23T21:17:42.659Z,84.20
2019-02-23T21:20:13.368Z,99.83
2019-02-23T21:22:43.827Z,101.30
2019-02-23T21:25:14.253Z,98.50
2019-02-23T21:27:44.981Z,89.53
2019-02-23T21:30:15.437Z,85.10
2019-02-23T21:32:45.942Z,89.87
2019-02-23T21:35:16.373Z,85.97
2019-02-23T21:37:46.840Z,88.07
2019-02-23T21:40:17.321Z,87.77
2019-02-23T21:42:47.757Z,85.80
2019-02-23T21:45:18.183Z,99.50
2019-02-23T21:47:48.814Z,91.47
2019-02-23T21:50:19.236Z,85.20
2019-02-23T21:52:50.692Z,85.40
2019-02-23T21:55:21.119Z,92.03
2019-02-23T21:57:51.539Z,97.37
2019-02-23T22:00:22.017Z,103.37
2019-02-23T22:02:52.829Z,96.03
2019-02-23T22:05:23.237Z,96.17
2019-02-23T22:07:54.020Z,94.87
2019-02-23T22:10:24.498Z,100.90
2019-02-23T22:12:55.945Z,87.00
2019-02-23T22:15:26.374Z,89.07
2019-02-23T22:17:56.798Z,85.87
2019-02-23T22:20:27.241Z,104.90
2019-02-23T22:22:59.700Z,108.67
2019-02-23T22:25:30.229Z,106.17
2019-02-23T22:28:00.680Z,113.07
2019-02-23T22:30:31.097Z,113.20
2019-02-23T22:33:01.513Z,112.07
2019-02-23T22:35:31.938Z,113.63
2019-02-23T22:38:02.393Z,123.10
2019-02-23T22:40:33.099Z,115.90
2019-02-23T22:43:03.730Z,125.47
2019-02-23T22:45:34.364Z,124.53
2019-02-23T22:48:04.994Z,126.97
2019-02-23T22:50:35.846Z,127.97
2019-02-23T22:53:06.362Z,141.23
2019-02-23T22:55:36.787Z,152.70
2019-02-23T22:58:07.215Z,126.93
2019-02-23T23:00:53.618Z,134.00
2019-02-23T23:03:24.395Z,126.90
2019-02-23T23:05:54.990Z,121.50
2019-02-23T23:08:25.615Z,121.07
2019-02-23T23:10:56.449Z,135.87
2019-02-23T23:13:26.883Z,131.87
2019-02-23T23:15:57.303Z,122.10
2019-02-23T23:18:27.734Z,123.73
2019-02-23T23:20:58.157Z,128.03
2019-02-23T23:23:28.600Z,139.50
2019-02-23T23:25:59.056Z,121.93
2019-02-23T23:28:29.437Z,117.80
2019-02-23T23:30:59.867Z,116.53
2019-02-23T23:33:30.296Z,126.43
2019-02-23T23:36:00.928Z,129.87
2019-02-23T23:38:31.560Z,131.73
2019-02-23T23:41:02.187Z,132.60
2019-02-23T23:43:32.659Z,120.17
2019-02-23T23:46:03.350Z,126.80
2019-02-23T23:48:33.792Z,121.13
2019-02-23T23:51:04.204Z,123.83
2019-02-23T23:53:35.862Z,136.77
2019-02-23T23:56:06.287Z,127.20
2019-02-23T23:58:36.714Z,122.67
